sensor_id;sensor_type;location;lat;lon;timestamp;pressure;altitude;pressure_sealevel;temperature;humidity
48796;BME280;34607;48.520;-1.330;2022-10-12T07:06:27;100871.47;;;11.33;95.84
48796;BME280;34607;48.520;-1.330;2022-10-12T07:08:54;100863.69;;;11.34;96.08
48796;BME280;34607;48.520;-1.330;2022-10-12T07:11:21;100866.28;;;11.33;97.15
48796;BME280;34607;48.520;-1.330;2022-10-12T07:13:48;100865.38;;;11.32;97.48
48796;BME280;34607;48.520;-1.330;2022-10-12T07:16:15;100854.00;;;11.25;98.40
48796;BME280;34607;48.520;-1.330;2022-10-12T07:18:43;100851.38;;;11.22;98.79
48796;BME280;34607;48.520;-1.330;2022-10-12T07:21:10;100855.59;;;11.19;99.07
48796;BME280;34607;48.520;-1.330;2022-10-12T07:23:38;100859.03;;;11.18;98.82
48796;BME280;34607;48.520;-1.330;2022-10-12T07:26:05;100854.56;;;11.11;99.55
48796;BME280;34607;48.520;-1.330;2022-10-12T07:28:33;100869.19;;;11.09;99.79
48796;BME280;34607;48.520;-1.330;2022-10-12T07:31:01;100863.16;;;11.10;99.99
48796;BME280;34607;48.520;-1.330;2022-10-12T07:33:31;100860.84;;;11.22;100.00
48796;BME280;34607;48.520;-1.330;2022-10-12T07:36:00;100864.59;;;11.35;100.00
48796;BME280;34607;48.520;-1.330;2022-10-12T07:38:28;100877.06;;;11.53;99.58
48796;BME280;34607;48.520;-1.330;2022-10-12T07:40:59;100874.84;;;11.71;99.20
48796;BME280;34607;48.520;-1.330;2022-10-12T07:43:26;100883.06;;;11.91;98.84
48796;BME280;34607;48.520;-1.330;2022-10-12T07:45:53;100881.59;;;12.06;98.33
48796;BME280;34607;48.520;-1.330;2022-10-12T07:48:21;100879.91;;;12.08;98.45
48796;BME280;34607;48.520;-1.330;2022-10-12T07:50:49;100864.28;;;12.05;98.38
48796;BME280;34607;48.520;-1.330;2022-10-12T07:53:16;100889.75;;;12.26;98.27
48796;BME280;34607;48.520;-1.330;2022-10-12T07:55:43;100897.66;;;12.33;98.40
48796;BME280;34607;48.520;-1.330;2022-10-12T07:58:12;100895.31;;;12.47;98.52
48796;BME280;34607;48.520;-1.330;2022-10-12T08:00:39;100880.69;;;12.51;98.09
48796;BME280;34607;48.520;-1.330;2022-10-12T08:03:07;100908.03;;;12.82;97.98
48796;BME280;34607;48.520;-1.330;2022-10-12T08:05:34;100904.66;;;12.88;98.68
48796;BME280;34607;48.520;-1.330;2022-10-12T08:08:03;100905.63;;;12.95;98.72
48796;BME280;34607;48.520;-1.330;2022-10-12T08:10:33;100915.31;;;13.05;98.79
48796;BME280;34607;48.520;-1.330;2022-10-12T08:13:01;100879.53;;;12.88;98.80
48796;BME280;34607;48.520;-1.330;2022-10-12T08:15:29;100906.69;;;13.06;99.51
48796;BME280;34607;48.520;-1.330;2022-10-12T08:17:57;100899.75;;;13.08;99.72
48796;BME280;34607;48.520;-1.330;2022-10-12T08:20:24;100912.09;;;13.21;99.49
48796;BME280;34607;48.520;-1.330;2022-10-12T08:22:52;100917.31;;;13.21;100.00
48796;BME280;34607;48.520;-1.330;2022-10-12T08:25:19;100901.72;;;13.24;100.00
48796;BME280;34607;48.520;-1.330;2022-10-12T08:27:47;100901.06;;;13.38;100.00
48796;BME280;34607;48.520;-1.330;2022-10-12T08:30:14;100897.69;;;13.45;100.00
48796;BME280;34607;48.520;-1.330;2022-10-12T08:32:43;100902.25;;;13.61;100.00
48796;BME280;34607;48.520;-1.330;2022-10-12T08:35:10;100907.84;;;13.94;100.00
48796;BME280;34607;48.520;-1.330;2022-10-12T08:37:37;100914.91;;;14.02;99.36
48796;BME280;34607;48.520;-1.330;2022-10-12T08:40:06;100917.59;;;14.13;99.45
48796;BME280;34607;48.520;-1.330;2022-10-12T08:42:41;100909.84;;;14.18;99.00
48796;BME280;34607;48.520;-1.330;2022-10-12T08:45:36;100903.94;;;14.33;98.53
48796;BME280;34607;48.520;-1.330;2022-10-12T08:48:10;100913.78;;;14.60;97.97
48796;BME280;34607;48.520;-1.330;2022-10-12T08:50:43;100918.13;;;14.61;97.28
48796;BME280;34607;48.520;-1.330;2022-10-12T08:53:15;100906.88;;;14.65;97.43
48796;BME280;34607;48.520;-1.330;2022-10-12T08:55:44;100897.50;;;14.92;97.78
48796;BME280;34607;48.520;-1.330;2022-10-12T08:58:15;100893.41;;;15.29;96.01
48796;BME280;34607;48.520;-1.330;2022-10-12T09:00:47;100891.81;;;15.58;95.08
48796;BME280;34607;48.520;-1.330;2022-10-12T09:03:26;100883.16;;;15.71;93.85
48796;BME280;34607;48.520;-1.330;2022-10-12T09:06:07;100894.56;;;15.87;93.19
48796;BME280;34607;48.520;-1.330;2022-10-12T09:08:46;100886.78;;;16.10;92.75
48796;BME280;34607;48.520;-1.330;2022-10-12T09:11:27;100872.00;;;16.21;92.45
48796;BME280;34607;48.520;-1.330;2022-10-12T09:14:04;100879.00;;;16.47;91.97
48796;BME280;34607;48.520;-1.330;2022-10-12T09:16:35;100880.72;;;16.80;90.73
48796;BME280;34607;48.520;-1.330;2022-10-12T09:19:13;100873.75;;;16.41;90.53
48796;BME280;34607;48.520;-1.330;2022-10-12T09:21:42;100869.41;;;16.34;91.74
48796;BME280;34607;48.520;-1.330;2022-10-12T09:24:15;100836.28;;;16.48;91.11
48796;BME280;34607;48.520;-1.330;2022-10-12T09:26:43;100854.59;;;16.33;91.41
48796;BME280;34607;48.520;-1.330;2022-10-12T09:29:22;100850.22;;;16.35;92.27
48796;BME280;34607;48.520;-1.330;2022-10-12T09:32:11;100849.38;;;16.85;90.39
48796;BME280;34607;48.520;-1.330;2022-10-12T09:34:44;100845.75;;;17.34;89.88
48796;BME280;34607;48.520;-1.330;2022-10-12T09:37:18;100849.06;;;17.76;88.22
48796;BME280;34607;48.520;-1.330;2022-10-12T09:39:46;100842.94;;;17.80;87.56
48796;BME280;34607;48.520;-1.330;2022-10-12T09:42:13;100852.63;;;17.61;88.43
48796;BME280;34607;48.520;-1.330;2022-10-12T09:44:43;100845.69;;;17.51;88.39
48796;BME280;34607;48.520;-1.330;2022-10-12T09:47:27;100847.38;;;17.63;88.31
48796;BME280;34607;48.520;-1.330;2022-10-12T09:49:57;100849.03;;;17.87;88.69
48796;BME280;34607;48.520;-1.330;2022-10-12T09:52:28;100846.13;;;18.30;87.43
48796;BME280;34607;48.520;-1.330;2022-10-12T09:54:58;100849.31;;;18.69;85.43
48796;BME280;34607;48.520;-1.330;2022-10-12T09:57:30;100848.84;;;19.17;85.45
48796;BME280;34607;48.520;-1.330;2022-10-12T09:59:59;100833.22;;;19.79;83.79
48796;BME280;34607;48.520;-1.330;2022-10-12T10:02:27;100831.16;;;19.99;82.42
48796;BME280;34607;48.520;-1.330;2022-10-12T10:05:14;100829.63;;;20.42;81.91
48796;BME280;34607;48.520;-1.330;2022-10-12T10:07:48;100841.59;;;20.63;79.92
48796;BME280;34607;48.520;-1.330;2022-10-12T10:10:17;100854.50;;;20.79;78.78
48796;BME280;34607;48.520;-1.330;2022-10-12T10:12:50;100838.81;;;20.15;78.65
48796;BME280;34607;48.520;-1.330;2022-10-12T10:15:21;100837.16;;;19.45;81.43
48796;BME280;34607;48.520;-1.330;2022-10-12T10:17:50;100836.38;;;20.02;81.58
48796;BME280;34607;48.520;-1.330;2022-10-12T10:20:27;100825.81;;;20.62;79.98
48796;BME280;34607;48.520;-1.330;2022-10-12T10:22:56;100842.72;;;20.98;78.90
48796;BME280;34607;48.520;-1.330;2022-10-12T10:25:24;100845.66;;;21.26;78.12
48796;BME280;34607;48.520;-1.330;2022-10-12T10:28:13;100857.38;;;21.57;77.72
48796;BME280;34607;48.520;-1.330;2022-10-12T10:30:55;100862.03;;;21.84;76.01
48796;BME280;34607;48.520;-1.330;2022-10-12T10:33:23;100859.25;;;21.92;75.38
48796;BME280;34607;48.520;-1.330;2022-10-12T10:35:58;100853.69;;;21.64;75.73
48796;BME280;34607;48.520;-1.330;2022-10-12T10:38:26;100867.88;;;21.58;76.21
48796;BME280;34607;48.520;-1.330;2022-10-12T10:40:55;100881.00;;;21.61;77.58
48796;BME280;34607;48.520;-1.330;2022-10-12T10:43:25;100883.72;;;21.99;76.16
48796;BME280;34607;48.520;-1.330;2022-10-12T10:45:55;100883.91;;;22.30;74.81
48796;BME280;34607;48.520;-1.330;2022-10-12T10:48:27;100893.13;;;22.48;73.84
48796;BME280;34607;48.520;-1.330;2022-10-12T10:50:58;100899.41;;;22.44;73.99
48796;BME280;34607;48.520;-1.330;2022-10-12T10:53:29;100906.06;;;22.21;73.78
48796;BME280;34607;48.520;-1.330;2022-10-12T10:56:02;100912.25;;;21.80;75.08
48796;BME280;34607;48.520;-1.330;2022-10-12T10:58:34;100911.69;;;21.64;75.63
48796;BME280;34607;48.520;-1.330;2022-10-12T11:01:09;100912.69;;;21.11;76.12
48796;BME280;34607;48.520;-1.330;2022-10-12T11:03:47;100909.78;;;20.77;76.96
48796;BME280;34607;48.520;-1.330;2022-10-12T11:06:24;100906.50;;;20.63;77.23
48796;BME280;34607;48.520;-1.330;2022-10-12T11:09:00;100911.94;;;20.50;77.95
48796;BME280;34607;48.520;-1.330;2022-10-12T11:11:31;100892.72;;;20.44;77.81
48796;BME280;34607;48.520;-1.330;2022-10-12T11:14:08;100892.97;;;20.28;78.38
48796;BME280;34607;48.520;-1.330;2022-10-12T11:16:41;100884.00;;;20.42;78.79
48796;BME280;34607;48.520;-1.330;2022-10-12T11:19:24;100875.88;;;21.08;77.39
48796;BME280;34607;48.520;-1.330;2022-10-12T11:21:58;100881.94;;;21.57;76.97
48796;BME280;34607;48.520;-1.330;2022-10-12T11:24:28;100887.13;;;21.62;75.79
48796;BME280;34607;48.520;-1.330;2022-10-12T11:27:02;100880.28;;;21.95;75.39
48796;BME280;34607;48.520;-1.330;2022-10-12T11:29:30;100885.03;;;22.18;74.15
48796;BME280;34607;48.520;-1.330;2022-10-12T11:32:00;100878.41;;;22.38;74.55
48796;BME280;34607;48.520;-1.330;2022-10-12T11:34:31;100872.13;;;22.45;73.98
48796;BME280;34607;48.520;-1.330;2022-10-12T11:37:08;100885.78;;;22.23;75.51
48796;BME280;34607;48.520;-1.330;2022-10-12T11:39:44;100868.47;;;22.49;74.17
48796;BME280;34607;48.520;-1.330;2022-10-12T11:42:17;100872.19;;;22.76;73.00
48796;BME280;34607;48.520;-1.330;2022-10-12T11:44:48;100874.88;;;22.75;72.81
48796;BME280;34607;48.520;-1.330;2022-10-12T11:47:21;100882.94;;;22.69;72.80
48796;BME280;34607;48.520;-1.330;2022-10-12T11:49:55;100872.97;;;22.80;72.66
48796;BME280;34607;48.520;-1.330;2022-10-12T11:52:31;100879.56;;;22.98;71.94
48796;BME280;34607;48.520;-1.330;2022-10-12T11:55:19;100865.59;;;22.58;71.61
48796;BME280;34607;48.520;-1.330;2022-10-12T11:57:50;100878.31;;;22.42;73.55
48796;BME280;34607;48.520;-1.330;2022-10-12T12:00:21;100872.69;;;22.56;72.22
48796;BME280;34607;48.520;-1.330;2022-10-12T12:02:53;100866.28;;;22.67;71.26
48796;BME280;34607;48.520;-1.330;2022-10-12T12:05:22;100868.09;;;22.65;71.81
48796;BME280;34607;48.520;-1.330;2022-10-12T12:07:53;100856.47;;;22.72;72.02
48796;BME280;34607;48.520;-1.330;2022-10-12T12:10:49;100851.72;;;22.86;70.35
48796;BME280;34607;48.520;-1.330;2022-10-12T12:13:21;100849.84;;;22.90;71.18
48796;BME280;34607;48.520;-1.330;2022-10-12T12:22:20;100837.19;;;22.68;69.23
48796;BME280;34607;48.520;-1.330;2022-10-12T12:24:56;100837.09;;;22.38;70.18
48796;BME280;34607;48.520;-1.330;2022-10-12T12:27:36;100826.69;;;22.67;71.01
48796;BME280;34607;48.520;-1.330;2022-10-12T12:30:23;100824.66;;;22.76;69.55
48796;BME280;34607;48.520;-1.330;2022-10-12T12:32:53;100823.44;;;22.90;69.27
48796;BME280;34607;48.520;-1.330;2022-10-12T12:35:24;100804.19;;;22.86;69.63
48796;BME280;34607;48.520;-1.330;2022-10-12T12:38:17;100788.88;;;22.97;68.99
48796;BME280;34607;48.520;-1.330;2022-10-12T12:40:57;100778.69;;;23.16;68.97
48796;BME280;34607;48.520;-1.330;2022-10-12T12:43:49;100784.19;;;23.09;69.24
48796;BME280;34607;48.520;-1.330;2022-10-12T12:46:17;100764.94;;;23.04;69.30
48796;BME280;34607;48.520;-1.330;2022-10-12T12:48:56;100772.06;;;23.02;69.28
48796;BME280;34607;48.520;-1.330;2022-10-12T12:51:31;100778.63;;;22.87;69.57
48796;BME280;34607;48.520;-1.330;2022-10-12T12:54:02;100774.66;;;22.70;70.62
48796;BME280;34607;48.520;-1.330;2022-10-12T12:56:35;100779.47;;;22.20;70.42
48796;BME280;34607;48.520;-1.330;2022-10-12T12:59:36;100777.84;;;21.36;71.26
48796;BME280;34607;48.520;-1.330;2022-10-12T13:02:27;100767.31;;;21.36;72.89
48796;BME280;34607;48.520;-1.330;2022-10-12T13:05:20;100760.06;;;21.49;71.73
48796;BME280;34607;48.520;-1.330;2022-10-12T13:08:09;100734.84;;;21.36;72.52
48796;BME280;34607;48.520;-1.330;2022-10-12T13:10:56;100731.00;;;21.88;72.73
48796;BME280;34607;48.520;-1.330;2022-10-12T13:13:44;100754.34;;;21.67;71.32
48796;BME280;34607;48.520;-1.330;2022-10-12T13:16:29;100756.66;;;21.42;72.48
48796;BME280;34607;48.520;-1.330;2022-10-12T13:19:02;100752.41;;;21.35;73.19
48796;BME280;34607;48.520;-1.330;2022-10-12T13:21:35;100754.66;;;21.54;72.65
48796;BME280;34607;48.520;-1.330;2022-10-12T13:24:13;100732.69;;;21.12;72.56
48796;BME280;34607;48.520;-1.330;2022-10-12T13:26:43;100758.28;;;21.06;73.70
48796;BME280;34607;48.520;-1.330;2022-10-12T13:29:18;100762.59;;;21.10;73.87
48796;BME280;34607;48.520;-1.330;2022-10-12T13:31:52;100762.63;;;21.08;74.11
48796;BME280;34607;48.520;-1.330;2022-10-12T13:34:23;100741.22;;;20.82;73.67
48796;BME280;34607;48.520;-1.330;2022-10-12T13:36:57;100746.50;;;20.82;74.30
48796;BME280;34607;48.520;-1.330;2022-10-12T13:39:26;100746.63;;;20.75;73.92
48796;BME280;34607;48.520;-1.330;2022-10-12T13:41:56;100736.28;;;20.65;73.13
48796;BME280;34607;48.520;-1.330;2022-10-12T13:44:28;100731.06;;;20.63;73.40
48796;BME280;34607;48.520;-1.330;2022-10-12T13:46:56;100723.78;;;20.77;74.67
48796;BME280;34607;48.520;-1.330;2022-10-12T13:49:25;100727.25;;;20.78;74.03
48796;BME280;34607;48.520;-1.330;2022-10-12T13:51:54;100741.06;;;20.91;72.91
48796;BME280;34607;48.520;-1.330;2022-10-12T13:54:23;100741.66;;;21.04;72.46
48796;BME280;34607;48.520;-1.330;2022-10-12T13:56:54;100731.59;;;20.82;72.28
48796;BME280;34607;48.520;-1.330;2022-10-12T13:59:24;100726.69;;;20.62;72.69
48796;BME280;34607;48.520;-1.330;2022-10-12T14:01:56;100715.72;;;20.37;73.55
48796;BME280;34607;48.520;-1.330;2022-10-12T14:04:27;100728.03;;;20.35;74.62
48796;BME280;34607;48.520;-1.330;2022-10-12T14:06:58;100717.88;;;20.13;75.21
48796;BME280;34607;48.520;-1.330;2022-10-12T14:09:32;100721.28;;;20.20;75.08
48796;BME280;34607;48.520;-1.330;2022-10-12T14:12:03;100719.56;;;20.19;75.74
48796;BME280;34607;48.520;-1.330;2022-10-12T14:14:32;100714.44;;;20.11;75.35
48796;BME280;34607;48.520;-1.330;2022-10-12T14:17:02;100722.34;;;20.10;75.55
48796;BME280;34607;48.520;-1.330;2022-10-12T14:19:33;100725.09;;;20.04;75.96
48796;BME280;34607;48.520;-1.330;2022-10-12T14:22:01;100718.31;;;19.89;76.74
48796;BME280;34607;48.520;-1.330;2022-10-12T14:24:29;100707.94;;;19.81;76.72
48796;BME280;34607;48.520;-1.330;2022-10-12T14:26:58;100710.38;;;19.92;76.74
48796;BME280;34607;48.520;-1.330;2022-10-12T14:29:35;100701.72;;;19.87;76.82
48796;BME280;34607;48.520;-1.330;2022-10-12T14:32:05;100709.31;;;20.04;77.00
48796;BME280;34607;48.520;-1.330;2022-10-12T14:34:44;100711.19;;;19.95;76.81
48796;BME280;34607;48.520;-1.330;2022-10-12T14:37:27;100694.72;;;19.84;77.67
48796;BME280;34607;48.520;-1.330;2022-10-12T14:39:56;100689.50;;;19.82;77.98
48796;BME280;34607;48.520;-1.330;2022-10-12T14:42:29;100694.34;;;20.07;77.43
48796;BME280;34607;48.520;-1.330;2022-10-12T14:44:56;100698.91;;;19.97;77.67
48796;BME280;34607;48.520;-1.330;2022-10-12T14:47:27;100690.91;;;20.04;77.51
48796;BME280;34607;48.520;-1.330;2022-10-12T14:49:57;100689.91;;;20.11;77.08
48796;BME280;34607;48.520;-1.330;2022-10-12T14:52:26;100681.13;;;20.12;76.13
48796;BME280;34607;48.520;-1.330;2022-10-12T14:54:56;100683.88;;;20.06;76.37
48796;BME280;34607;48.520;-1.330;2022-10-12T14:57:26;100691.53;;;20.18;76.22
48796;BME280;34607;48.520;-1.330;2022-10-12T14:59:53;100692.56;;;20.09;76.21
48796;BME280;34607;48.520;-1.330;2022-10-12T15:02:23;100694.41;;;20.04;77.27
48796;BME280;34607;48.520;-1.330;2022-10-12T15:04:53;100685.00;;;19.89;77.37
48796;BME280;34607;48.520;-1.330;2022-10-12T15:07:22;100683.28;;;19.88;77.76
48796;BME280;34607;48.520;-1.330;2022-10-12T15:09:49;100688.78;;;19.73;78.09
48796;BME280;34607;48.520;-1.330;2022-10-12T15:12:18;100711.66;;;19.64;78.33
48796;BME280;34607;48.520;-1.330;2022-10-12T15:14:46;100696.75;;;19.65;78.08
48796;BME280;34607;48.520;-1.330;2022-10-12T15:17:15;100694.25;;;19.57;78.00
48796;BME280;34607;48.520;-1.330;2022-10-12T15:19:43;100692.50;;;19.58;78.43
48796;BME280;34607;48.520;-1.330;2022-10-12T15:22:14;100694.22;;;19.60;78.82
48796;BME280;34607;48.520;-1.330;2022-10-12T15:24:41;100676.78;;;19.53;79.08
48796;BME280;34607;48.520;-1.330;2022-10-12T15:27:08;100694.94;;;19.70;79.05
48796;BME280;34607;48.520;-1.330;2022-10-12T15:29:35;100694.09;;;19.67;79.13
48796;BME280;34607;48.520;-1.330;2022-10-12T15:32:03;100687.22;;;19.59;79.61
48796;BME280;34607;48.520;-1.330;2022-10-12T15:34:30;100693.28;;;19.64;79.88
48796;BME280;34607;48.520;-1.330;2022-10-12T15:36:57;100686.28;;;19.62;79.88
48796;BME280;34607;48.520;-1.330;2022-10-12T15:39:26;100688.88;;;19.65;79.97
48796;BME280;34607;48.520;-1.330;2022-10-12T15:41:53;100651.63;;;19.40;79.92
48796;BME280;34607;48.520;-1.330;2022-10-12T15:44:20;100687.38;;;19.50;80.39
48796;BME280;34607;48.520;-1.330;2022-10-12T15:46:49;100667.72;;;19.17;80.60
48796;BME280;34607;48.520;-1.330;2022-10-12T15:49:18;100686.84;;;19.26;80.33
48796;BME280;34607;48.520;-1.330;2022-10-12T15:51:48;100680.63;;;19.31;80.44
48796;BME280;34607;48.520;-1.330;2022-10-12T15:54:15;100670.19;;;19.26;81.03
48796;BME280;34607;48.520;-1.330;2022-10-12T15:56:44;100689.22;;;19.43;81.34
48796;BME280;34607;48.520;-1.330;2022-10-12T15:59:11;100688.34;;;19.41;82.14
48796;BME280;34607;48.520;-1.330;2022-10-12T16:01:38;100691.03;;;19.40;82.92
48796;BME280;34607;48.520;-1.330;2022-10-12T16:04:11;100672.75;;;19.31;83.44
48796;BME280;34607;48.520;-1.330;2022-10-12T16:06:39;100694.59;;;19.33;83.62
48796;BME280;34607;48.520;-1.330;2022-10-12T16:09:06;100695.72;;;19.16;84.35
48796;BME280;34607;48.520;-1.330;2022-10-12T16:11:34;100690.59;;;19.07;84.79
48796;BME280;34607;48.520;-1.330;2022-10-12T16:14:02;100668.91;;;18.93;85.10
48796;BME280;34607;48.520;-1.330;2022-10-12T16:16:30;100680.19;;;18.99;85.70
48796;BME280;34607;48.520;-1.330;2022-10-12T16:19:17;100662.88;;;18.86;85.88
48796;BME280;34607;48.520;-1.330;2022-10-12T16:21:44;100677.75;;;18.87;86.36
48796;BME280;34607;48.520;-1.330;2022-10-12T16:24:11;100670.84;;;18.75;86.84
48796;BME280;34607;48.520;-1.330;2022-10-12T16:26:39;100677.03;;;18.69;87.28
48796;BME280;34607;48.520;-1.330;2022-10-12T16:29:07;100689.28;;;18.67;87.57
48796;BME280;34607;48.520;-1.330;2022-10-12T16:31:34;100698.13;;;18.60;87.61
48796;BME280;34607;48.520;-1.330;2022-10-12T16:34:01;100696.53;;;18.45;88.16
48796;BME280;34607;48.520;-1.330;2022-10-12T16:36:29;100694.00;;;18.38;88.24
48796;BME280;34607;48.520;-1.330;2022-10-12T16:38:56;100694.03;;;18.33;87.93
48796;BME280;34607;48.520;-1.330;2022-10-12T16:41:23;100685.38;;;18.25;88.21
48796;BME280;34607;48.520;-1.330;2022-10-12T16:43:52;100699.41;;;18.21;88.13
48796;BME280;34607;48.520;-1.330;2022-10-12T16:46:21;100699.47;;;18.14;88.50
48796;BME280;34607;48.520;-1.330;2022-10-12T16:48:48;100697.81;;;18.04;88.58
48796;BME280;34607;48.520;-1.330;2022-10-12T16:51:15;100697.09;;;17.87;89.10
48796;BME280;34607;48.520;-1.330;2022-10-12T16:53:42;100702.38;;;17.76;89.45
48796;BME280;34607;48.520;-1.330;2022-10-12T16:56:09;100695.41;;;17.73;89.19
48796;BME280;34607;48.520;-1.330;2022-10-12T16:58:36;100696.31;;;17.69;88.97
48796;BME280;34607;48.520;-1.330;2022-10-12T17:01:08;100702.47;;;17.65;88.92
48796;BME280;34607;48.520;-1.330;2022-10-12T17:03:37;100700.75;;;17.58;89.01
48796;BME280;34607;48.520;-1.330;2022-10-12T17:06:04;100696.47;;;17.48;89.17
48796;BME280;34607;48.520;-1.330;2022-10-12T17:08:32;100702.63;;;17.37;89.32
48796;BME280;34607;48.520;-1.330;2022-10-12T17:11:04;100697.47;;;17.25;89.66
48796;BME280;34607;48.520;-1.330;2022-10-12T17:13:32;100697.47;;;17.25;89.81
48796;BME280;34607;48.520;-1.330;2022-10-12T17:16:01;100704.47;;;17.23;90.10
48796;BME280;34607;48.520;-1.330;2022-10-12T17:18:51;100707.09;;;17.20;90.25
48796;BME280;34607;48.520;-1.330;2022-10-12T17:21:18;100712.38;;;17.14;89.98
48796;BME280;34607;48.520;-1.330;2022-10-12T17:23:45;100707.19;;;17.01;89.83
48796;BME280;34607;48.520;-1.330;2022-10-12T17:26:12;100712.41;;;17.01;89.96
48796;BME280;34607;48.520;-1.330;2022-10-12T17:28:40;100706.38;;;16.95;90.13
48796;BME280;34607;48.520;-1.330;2022-10-12T17:31:08;100690.69;;;16.85;90.15
48796;BME280;34607;48.520;-1.330;2022-10-12T17:33:35;100698.53;;;16.89;90.11
48796;BME280;34607;48.520;-1.330;2022-10-12T17:36:06;100702.91;;;16.90;90.01
48796;BME280;34607;48.520;-1.330;2022-10-12T17:38:33;100696.78;;;16.81;90.14
48796;BME280;34607;48.520;-1.330;2022-10-12T17:41:01;100699.41;;;16.75;90.32
48796;BME280;34607;48.520;-1.330;2022-10-12T17:43:29;100695.09;;;16.66;90.56
48796;BME280;34607;48.520;-1.330;2022-10-12T17:45:56;100684.66;;;16.54;90.68
48796;BME280;34607;48.520;-1.330;2022-10-12T17:48:23;100683.81;;;16.46;91.00
48796;BME280;34607;48.520;-1.330;2022-10-12T17:50:50;100682.97;;;16.44;91.10
48796;BME280;34607;48.520;-1.330;2022-10-12T17:53:19;100689.94;;;16.36;91.38
48796;BME280;34607;48.520;-1.330;2022-10-12T17:55:46;100689.09;;;16.23;91.56
48796;BME280;34607;48.520;-1.330;2022-10-12T17:58:13;100700.41;;;16.17;91.97
48796;BME280;34607;48.520;-1.330;2022-10-12T18:00:40;100707.38;;;16.12;92.15
48796;BME280;34607;48.520;-1.330;2022-10-12T18:03:07;100709.13;;;16.12;92.29
48796;BME280;34607;48.520;-1.330;2022-10-12T18:05:36;100713.50;;;16.13;92.51
48796;BME280;34607;48.520;-1.330;2022-10-12T18:08:03;100715.22;;;16.15;92.67
48796;BME280;34607;48.520;-1.330;2022-10-12T18:10:31;100714.34;;;16.19;92.51
48796;BME280;34607;48.520;-1.330;2022-10-12T18:12:59;100708.25;;;16.17;92.66
48796;BME280;34607;48.520;-1.330;2022-10-12T18:15:26;100709.16;;;16.16;92.79
48796;BME280;34607;48.520;-1.330;2022-10-12T18:17:53;100713.47;;;16.19;92.97
48796;BME280;34607;48.520;-1.330;2022-10-12T18:20:20;100716.09;;;16.19;93.05
48796;BME280;34607;48.520;-1.330;2022-10-12T18:22:47;100719.56;;;16.19;92.98
48796;BME280;34607;48.520;-1.330;2022-10-12T18:25:14;100717.84;;;16.15;92.87
48796;BME280;34607;48.520;-1.330;2022-10-12T18:27:43;100707.38;;;16.14;93.00
48796;BME280;34607;48.520;-1.330;2022-10-12T18:30:11;100714.38;;;16.02;93.19
48796;BME280;34607;48.520;-1.330;2022-10-12T18:32:39;100719.59;;;15.98;93.38
48796;BME280;34607;48.520;-1.330;2022-10-12T18:35:06;100719.56;;;15.90;93.33
48796;BME280;34607;48.520;-1.330;2022-10-12T18:37:34;100729.16;;;15.86;93.59
48796;BME280;34607;48.520;-1.330;2022-10-12T18:40:01;100716.13;;;15.80;93.77
48796;BME280;34607;48.520;-1.330;2022-10-12T18:42:28;100716.06;;;15.74;93.85
48796;BME280;34607;48.520;-1.330;2022-10-12T18:44:57;100709.97;;;15.72;93.76
48796;BME280;34607;48.520;-1.330;2022-10-12T18:47:24;100713.44;;;15.65;94.07
48796;BME280;34607;48.520;-1.330;2022-10-12T18:49:51;100711.69;;;15.61;94.19
48796;BME280;34607;48.520;-1.330;2022-10-12T18:52:18;100708.19;;;15.57;94.43
48796;BME280;34607;48.520;-1.330;2022-10-12T18:54:48;100703.88;;;15.54;94.50
48796;BME280;34607;48.520;-1.330;2022-10-12T18:57:15;100704.69;;;15.49;94.66
48796;BME280;34607;48.520;-1.330;2022-10-12T18:59:42;100701.22;;;15.45;94.65
48796;BME280;34607;48.520;-1.330;2022-10-12T19:02:11;100698.63;;;15.41;94.73
48796;BME280;34607;48.520;-1.330;2022-10-12T19:04:38;100702.09;;;15.40;94.87
48796;BME280;34607;48.520;-1.330;2022-10-12T19:07:05;100703.84;;;15.39;95.08
48796;BME280;34607;48.520;-1.330;2022-10-12T19:09:32;100702.97;;;15.35;95.26
48796;BME280;34607;48.520;-1.330;2022-10-12T19:11:59;100708.16;;;15.39;95.25
48796;BME280;34607;48.520;-1.330;2022-10-12T19:14:26;100696.00;;;15.38;95.25
48796;BME280;34607;48.520;-1.330;2022-10-12T19:16:53;100702.09;;;15.30;95.27
48796;BME280;34607;48.520;-1.330;2022-10-12T19:19:22;100690.75;;;15.22;95.40
48796;BME280;34607;48.520;-1.330;2022-10-12T19:21:50;100677.66;;;15.13;95.47
48796;BME280;34607;48.520;-1.330;2022-10-12T19:24:19;100697.69;;;15.25;95.69
48796;BME280;34607;48.520;-1.330;2022-10-12T19:26:47;100696.81;;;15.23;95.79
48796;BME280;34607;48.520;-1.330;2022-10-12T19:29:14;100697.69;;;15.23;95.62
48796;BME280;34607;48.520;-1.330;2022-10-12T19:31:42;100706.41;;;15.25;95.74
48796;BME280;34607;48.520;-1.330;2022-10-12T19:34:12;100693.34;;;15.21;95.72
48796;BME280;34607;48.520;-1.330;2022-10-12T19:36:41;100715.09;;;15.23;95.80
48796;BME280;34607;48.520;-1.330;2022-10-12T19:39:15;100713.38;;;15.22;95.50
48796;BME280;34607;48.520;-1.330;2022-10-12T19:41:43;100689.84;;;15.12;95.63
48796;BME280;34607;48.520;-1.330;2022-10-12T19:44:11;100702.91;;;15.20;95.75
48796;BME280;34607;48.520;-1.330;2022-10-12T19:46:39;100702.03;;;15.16;95.73
48796;BME280;34607;48.520;-1.330;2022-10-12T19:49:10;100703.75;;;15.14;95.87
48796;BME280;34607;48.520;-1.330;2022-10-12T19:51:38;100695.94;;;15.10;95.96
48796;BME280;34607;48.520;-1.330;2022-10-12T19:54:08;100700.25;;;15.03;96.00
48796;BME280;34607;48.520;-1.330;2022-10-12T19:56:36;100710.69;;;15.05;96.15
48796;BME280;34607;48.520;-1.330;2022-10-12T19:59:03;100703.72;;;15.02;96.30
48796;BME280;34607;48.520;-1.330;2022-10-12T20:01:32;100710.69;;;15.02;96.41
48796;BME280;34607;48.520;-1.330;2022-10-12T20:04:00;100716.75;;;15.02;96.45
48796;BME280;34607;48.520;-1.330;2022-10-12T20:06:28;100716.75;;;15.02;96.25
48796;BME280;34607;48.520;-1.330;2022-10-12T20:08:57;100696.72;;;14.92;96.44
48796;BME280;34607;48.520;-1.330;2022-10-12T20:11:27;100705.44;;;14.97;96.72